sensor_id;sensor_type;location;lat;lon;timestamp;P1;durP1;ratioP1;P2;durP2;ratioP2
73276;SDS011;61501;43.316;5.372;2023-04-21T00:01:27;7.22;;;3.33;;
73276;SDS011;61501;43.316;5.372;2023-04-21T00:03:54;5.55;;;3.50;;
73276;SDS011;61501;43.316;5.372;2023-04-21T00:06:20;5.45;;;3.33;;
73276;SDS011;61501;43.316;5.372;2023-04-21T00:08:47;5.20;;;3.50;;
73276;SDS011;61501;43.316;5.372;2023-04-21T00:11:13;5.05;;;3.45;;
73276;SDS011;61501;43.316;5.372;2023-04-21T00:13:39;6.38;;;3.20;;
73276;SDS011;61501;43.316;5.372;2023-04-21T00:16:05;7.38;;;3.42;;
73276;SDS011;61501;43.316;5.372;2023-04-21T00:18:31;7.38;;;3.60;;
73276;SDS011;61501;43.316;5.372;2023-04-21T00:20:56;6.55;;;3.75;;
73276;SDS011;61501;43.316;5.372;2023-04-21T00:23:22;6.72;;;3.58;;
73276;SDS011;61501;43.316;5.372;2023-04-21T00:25:48;5.57;;;3.75;;
73276;SDS011;61501;43.316;5.372;2023-04-21T00:28:13;5.95;;;3.47;;
73276;SDS011;61501;43.316;5.372;2023-04-21T00:30:39;4.70;;;3.30;;
73276;SDS011;61501;43.316;5.372;2023-04-21T00:33:05;4.90;;;3.42;;
73276;SDS011;61501;43.316;5.372;2023-04-21T00:35:31;5.65;;;3.20;;
73276;SDS011;61501;43.316;5.372;2023-04-21T00:37:57;6.05;;;3.20;;
73276;SDS011;61501;43.316;5.372;2023-04-21T00:40:22;6.50;;;3.47;;
73276;SDS011;61501;43.316;5.372;2023-04-21T00:42:48;4.43;;;3.17;;
73276;SDS011;61501;43.316;5.372;2023-04-21T00:45:13;5.55;;;3.22;;
73276;SDS011;61501;43.316;5.372;2023-04-21T00:47:39;5.65;;;3.53;;
73276;SDS011;61501;43.316;5.372;2023-04-21T00:50:05;6.45;;;3.40;;
73276;SDS011;61501;43.316;5.372;2023-04-21T00:52:34;5.05;;;3.25;;
73276;SDS011;61501;43.316;5.372;2023-04-21T00:55:01;5.88;;;3.28;;
73276;SDS011;61501;43.316;5.372;2023-04-21T00:57:27;5.13;;;3.30;;
73276;SDS011;61501;43.316;5.372;2023-04-21T00:59:53;6.72;;;3.40;;
73276;SDS011;61501;43.316;5.372;2023-04-21T01:02:19;5.18;;;3.33;;
73276;SDS011;61501;43.316;5.372;2023-04-21T01:04:46;5.53;;;2.80;;
73276;SDS011;61501;43.316;5.372;2023-04-21T01:07:12;4.90;;;2.83;;
73276;SDS011;61501;43.316;5.372;2023-04-21T01:09:38;6.43;;;3.30;;
73276;SDS011;61501;43.316;5.372;2023-04-21T01:12:04;5.43;;;2.95;;
73276;SDS011;61501;43.316;5.372;2023-04-21T01:14:34;8.10;;;3.35;;
73276;SDS011;61501;43.316;5.372;2023-04-21T01:17:01;6.00;;;3.78;;
73276;SDS011;61501;43.316;5.372;2023-04-21T01:19:32;5.85;;;3.97;;
73276;SDS011;61501;43.316;5.372;2023-04-21T01:22:03;5.30;;;3.92;;
73276;SDS011;61501;43.316;5.372;2023-04-21T01:24:37;4.70;;;3.38;;
73276;SDS011;61501;43.316;5.372;2023-04-21T01:27:13;4.45;;;3.17;;
73276;SDS011;61501;43.316;5.372;2023-04-21T01:29:45;7.00;;;3.20;;
73276;SDS011;61501;43.316;5.372;2023-04-21T01:32:14;4.75;;;3.13;;
73276;SDS011;61501;43.316;5.372;2023-04-21T01:34:48;5.45;;;3.05;;
73276;SDS011;61501;43.316;5.372;2023-04-21T01:37:23;4.57;;;2.88;;
73276;SDS011;61501;43.316;5.372;2023-04-21T01:39:58;5.10;;;2.90;;
73276;SDS011;61501;43.316;5.372;2023-04-21T01:42:26;6.57;;;3.20;;
73276;SDS011;61501;43.316;5.372;2023-04-21T01:44:54;4.93;;;2.97;;
73276;SDS011;61501;43.316;5.372;2023-04-21T01:47:20;6.22;;;2.90;;
73276;SDS011;61501;43.316;5.372;2023-04-21T01:49:46;4.53;;;2.65;;
73276;SDS011;61501;43.316;5.372;2023-04-21T01:52:12;4.15;;;2.75;;
73276;SDS011;61501;43.316;5.372;2023-04-21T01:54:37;6.05;;;2.53;;
73276;SDS011;61501;43.316;5.372;2023-04-21T01:57:03;4.80;;;2.78;;
73276;SDS011;61501;43.316;5.372;2023-04-21T01:59:29;4.78;;;2.88;;
73276;SDS011;61501;43.316;5.372;2023-04-21T02:01:55;4.10;;;2.70;;
73276;SDS011;61501;43.316;5.372;2023-04-21T02:04:20;6.95;;;3.05;;
73276;SDS011;61501;43.316;5.372;2023-04-21T02:06:46;4.40;;;2.80;;
73276;SDS011;61501;43.316;5.372;2023-04-21T02:09:12;3.78;;;2.53;;
73276;SDS011;61501;43.316;5.372;2023-04-21T02:11:37;4.78;;;2.60;;
73276;SDS011;61501;43.316;5.372;2023-04-21T02:14:03;4.47;;;2.75;;
73276;SDS011;61501;43.316;5.372;2023-04-21T02:16:28;4.72;;;2.75;;
73276;SDS011;61501;43.316;5.372;2023-04-21T02:18:55;5.45;;;2.72;;
73276;SDS011;61501;43.316;5.372;2023-04-21T02:21:21;4.45;;;2.75;;
73276;SDS011;61501;43.316;5.372;2023-04-21T02:23:47;5.40;;;2.78;;
73276;SDS011;61501;43.316;5.372;2023-04-21T02:26:13;3.72;;;2.25;;
73276;SDS011;61501;43.316;5.372;2023-04-21T02:28:38;3.33;;;2.47;;
73276;SDS011;61501;43.316;5.372;2023-04-21T02:31:04;6.00;;;2.60;;
73276;SDS011;61501;43.316;5.372;2023-04-21T02:33:29;4.47;;;2.30;;
73276;SDS011;61501;43.316;5.372;2023-04-21T02:35:55;4.25;;;2.55;;
73276;SDS011;61501;43.316;5.372;2023-04-21T02:38:21;4.28;;;2.22;;
73276;SDS011;61501;43.316;5.372;2023-04-21T02:40:46;3.75;;;2.50;;
73276;SDS011;61501;43.316;5.372;2023-04-21T02:43:13;3.90;;;2.55;;
73276;SDS011;61501;43.316;5.372;2023-04-21T02:45:38;4.55;;;2.50;;
73276;SDS011;61501;43.316;5.372;2023-04-21T02:48:04;3.35;;;2.28;;
73276;SDS011;61501;43.316;5.372;2023-04-21T02:50:30;2.88;;;2.10;;
73276;SDS011;61501;43.316;5.372;2023-04-21T02:52:56;4.43;;;2.53;;
73276;SDS011;61501;43.316;5.372;2023-04-21T02:55:21;3.15;;;2.25;;
73276;SDS011;61501;43.316;5.372;2023-04-21T02:57:47;4.03;;;2.38;;
73276;SDS011;61501;43.316;5.372;2023-04-21T03:00:13;4.70;;;2.28;;
73276;SDS011;61501;43.316;5.372;2023-04-21T03:02:39;3.17;;;2.35;;
73276;SDS011;61501;43.316;5.372;2023-04-21T03:05:05;7.57;;;2.40;;
73276;SDS011;61501;43.316;5.372;2023-04-21T03:07:31;3.88;;;2.33;;
73276;SDS011;61501;43.316;5.372;2023-04-21T03:09:56;2.90;;;2.00;;
73276;SDS011;61501;43.316;5.372;2023-04-21T03:12:22;4.75;;;2.40;;
73276;SDS011;61501;43.316;5.372;2023-04-21T03:14:48;2.60;;;2.22;;
73276;SDS011;61501;43.316;5.372;2023-04-21T03:17:13;4.68;;;2.67;;
73276;SDS011;61501;43.316;5.372;2023-04-21T03:19:39;4.47;;;2.33;;
73276;SDS011;61501;43.316;5.372;2023-04-21T03:22:05;3.85;;;2.55;;
73276;SDS011;61501;43.316;5.372;2023-04-21T03:24:31;4.22;;;2.28;;
73276;SDS011;61501;43.316;5.372;2023-04-21T03:26:56;3.95;;;2.67;;
73276;SDS011;61501;43.316;5.372;2023-04-21T03:29:22;3.72;;;2.42;;
73276;SDS011;61501;43.316;5.372;2023-04-21T03:31:48;4.30;;;2.80;;
73276;SDS011;61501;43.316;5.372;2023-04-21T03:34:14;3.95;;;2.33;;
73276;SDS011;61501;43.316;5.372;2023-04-21T03:36:39;4.50;;;2.97;;
73276;SDS011;61501;43.316;5.372;2023-04-21T03:39:06;3.25;;;2.25;;
73276;SDS011;61501;43.316;5.372;2023-04-21T03:41:34;5.47;;;2.65;;
73276;SDS011;61501;43.316;5.372;2023-04-21T03:44:00;5.63;;;2.80;;
73276;SDS011;61501;43.316;5.372;2023-04-21T03:46:26;3.97;;;2.55;;
73276;SDS011;61501;43.316;5.372;2023-04-21T03:48:51;5.38;;;2.45;;
73276;SDS011;61501;43.316;5.372;2023-04-21T03:51:17;3.15;;;2.45;;
73276;SDS011;61501;43.316;5.372;2023-04-21T03:53:42;4.03;;;2.70;;
73276;SDS011;61501;43.316;5.372;2023-04-21T03:56:08;4.10;;;2.45;;
73276;SDS011;61501;43.316;5.372;2023-04-21T03:58:34;3.63;;;2.85;;
73276;SDS011;61501;43.316;5.372;2023-04-21T04:01:00;4.57;;;2.75;;
73276;SDS011;61501;43.316;5.372;2023-04-21T04:03:26;3.95;;;2.53;;
73276;SDS011;61501;43.316;5.372;2023-04-21T04:05:52;4.35;;;3.10;;
73276;SDS011;61501;43.316;5.372;2023-04-21T04:08:17;5.55;;;3.33;;
73276;SDS011;61501;43.316;5.372;2023-04-21T04:10:43;5.60;;;3.03;;
73276;SDS011;61501;43.316;5.372;2023-04-21T04:13:08;5.22;;;3.08;;
73276;SDS011;61501;43.316;5.372;2023-04-21T04:15:34;4.82;;;2.60;;
73276;SDS011;61501;43.316;5.372;2023-04-21T04:18:00;5.50;;;3.00;;
73276;SDS011;61501;43.316;5.372;2023-04-21T04:20:39;4.78;;;2.80;;
73276;SDS011;61501;43.316;5.372;2023-04-21T04:23:05;3.55;;;2.45;;
73276;SDS011;61501;43.316;5.372;2023-04-21T04:25:31;5.38;;;2.05;;
73276;SDS011;61501;43.316;5.372;2023-04-21T04:27:57;3.22;;;2.35;;
73276;SDS011;61501;43.316;5.372;2023-04-21T04:30:23;5.40;;;2.72;;
73276;SDS011;61501;43.316;5.372;2023-04-21T04:32:51;6.45;;;2.95;;
73276;SDS011;61501;43.316;5.372;2023-04-21T04:35:17;4.30;;;2.50;;
73276;SDS011;61501;43.316;5.372;2023-04-21T04:37:43;3.97;;;2.70;;
73276;SDS011;61501;43.316;5.372;2023-04-21T04:40:09;4.57;;;2.60;;
73276;SDS011;61501;43.316;5.372;2023-04-21T04:42:36;3.70;;;2.65;;
73276;SDS011;61501;43.316;5.372;2023-04-21T04:45:03;4.95;;;2.60;;
73276;SDS011;61501;43.316;5.372;2023-04-21T04:47:32;7.30;;;2.83;;
73276;SDS011;61501;43.316;5.372;2023-04-21T04:50:01;3.50;;;2.67;;
73276;SDS011;61501;43.316;5.372;2023-04-21T04:52:27;4.20;;;2.60;;
73276;SDS011;61501;43.316;5.372;2023-04-21T04:54:53;5.22;;;3.00;;
73276;SDS011;61501;43.316;5.372;2023-04-21T04:57:18;5.75;;;3.28;;
73276;SDS011;61501;43.316;5.372;2023-04-21T05:02:42;3.65;;;2.47;;
73276;SDS011;61501;43.316;5.372;2023-04-21T05:05:08;4.22;;;2.75;;
73276;SDS011;61501;43.316;5.372;2023-04-21T05:07:34;3.72;;;2.63;;
73276;SDS011;61501;43.316;5.372;2023-04-21T05:09:59;3.97;;;2.70;;
73276;SDS011;61501;43.316;5.372;2023-04-21T05:12:26;4.05;;;2.80;;
73276;SDS011;61501;43.316;5.372;2023-04-21T05:14:52;4.13;;;2.40;;
73276;SDS011;61501;43.316;5.372;2023-04-21T05:17:17;4.72;;;2.42;;
73276;SDS011;61501;43.316;5.372;2023-04-21T05:19:43;4.32;;;2.55;;
73276;SDS011;61501;43.316;5.372;2023-04-21T05:22:08;3.38;;;2.60;;
73276;SDS011;61501;43.316;5.372;2023-04-21T05:24:34;5.22;;;2.40;;
73276;SDS011;61501;43.316;5.372;2023-04-21T05:27:00;5.00;;;2.90;;
73276;SDS011;61501;43.316;5.372;2023-04-21T05:29:27;6.00;;;2.67;;
73276;SDS011;61501;43.316;5.372;2023-04-21T05:31:53;4.35;;;2.80;;
73276;SDS011;61501;43.316;5.372;2023-04-21T05:34:18;6.50;;;2.80;;
73276;SDS011;61501;43.316;5.372;2023-04-21T05:36:44;5.45;;;2.90;;
73276;SDS011;61501;43.316;5.372;2023-04-21T05:39:09;4.18;;;2.60;;
73276;SDS011;61501;43.316;5.372;2023-04-21T05:41:35;5.05;;;3.15;;
73276;SDS011;61501;43.316;5.372;2023-04-21T05:44:01;5.10;;;2.78;;
73276;SDS011;61501;43.316;5.372;2023-04-21T05:46:26;5.88;;;2.75;;
73276;SDS011;61501;43.316;5.372;2023-04-21T05:48:54;6.63;;;2.95;;
73276;SDS011;61501;43.316;5.372;2023-04-21T05:51:19;6.82;;;2.83;;
73276;SDS011;61501;43.316;5.372;2023-04-21T05:53:45;3.92;;;2.95;;
73276;SDS011;61501;43.316;5.372;2023-04-21T05:56:11;5.28;;;3.10;;
73276;SDS011;61501;43.316;5.372;2023-04-21T05:58:37;4.28;;;2.65;;
73276;SDS011;61501;43.316;5.372;2023-04-21T06:01:04;7.25;;;3.20;;
73276;SDS011;61501;43.316;5.372;2023-04-21T06:03:33;4.78;;;2.72;;
73276;SDS011;61501;43.316;5.372;2023-04-21T06:05:59;5.93;;;2.92;;
73276;SDS011;61501;43.316;5.372;2023-04-21T06:08:26;4.93;;;2.78;;
73276;SDS011;61501;43.316;5.372;2023-04-21T06:10:51;6.72;;;2.72;;
73276;SDS011;61501;43.316;5.372;2023-04-21T06:13:17;6.75;;;2.55;;
73276;SDS011;61501;43.316;5.372;2023-04-21T06:15:43;6.53;;;3.10;;
73276;SDS011;61501;43.316;5.372;2023-04-21T06:18:08;6.18;;;3.00;;
73276;SDS011;61501;43.316;5.372;2023-04-21T06:20:34;5.47;;;2.95;;
73276;SDS011;61501;43.316;5.372;2023-04-21T06:23:00;4.10;;;2.80;;
73276;SDS011;61501;43.316;5.372;2023-04-21T06:25:25;9.82;;;3.97;;
73276;SDS011;61501;43.316;5.372;2023-04-21T06:27:51;4.25;;;2.90;;
73276;SDS011;61501;43.316;5.372;2023-04-21T06:30:16;7.03;;;3.08;;
73276;SDS011;61501;43.316;5.372;2023-04-21T06:32:42;4.63;;;3.05;;
73276;SDS011;61501;43.316;5.372;2023-04-21T06:35:10;3.67;;;2.60;;
73276;SDS011;61501;43.316;5.372;2023-04-21T06:37:36;6.85;;;2.95;;
73276;SDS011;61501;43.316;5.372;2023-04-21T06:40:02;5.47;;;3.40;;
73276;SDS011;61501;43.316;5.372;2023-04-21T06:42:27;5.28;;;2.80;;
73276;SDS011;61501;43.316;5.372;2023-04-21T06:44:53;6.00;;;3.00;;
73276;SDS011;61501;43.316;5.372;2023-04-21T06:47:20;4.18;;;3.00;;
73276;SDS011;61501;43.316;5.372;2023-04-21T06:49:46;6.13;;;2.75;;
73276;SDS011;61501;43.316;5.372;2023-04-21T06:52:11;4.88;;;3.30;;
73276;SDS011;61501;43.316;5.372;2023-04-21T06:54:37;5.95;;;3.35;;
73276;SDS011;61501;43.316;5.372;2023-04-21T06:57:03;6.55;;;2.90;;
73276;SDS011;61501;43.316;5.372;2023-04-21T06:59:28;5.00;;;2.85;;
73276;SDS011;61501;43.316;5.372;2023-04-21T07:01:54;4.20;;;2.88;;
73276;SDS011;61501;43.316;5.372;2023-04-21T07:04:20;4.82;;;2.40;;
73276;SDS011;61501;43.316;5.372;2023-04-21T07:06:45;4.60;;;3.00;;
73276;SDS011;61501;43.316;5.372;2023-04-21T07:09:11;5.93;;;3.25;;
73276;SDS011;61501;43.316;5.372;2023-04-21T07:11:37;6.53;;;3.30;;
73276;SDS011;61501;43.316;5.372;2023-04-21T07:14:02;4.32;;;2.78;;
73276;SDS011;61501;43.316;5.372;2023-04-21T07:16:28;6.88;;;3.05;;
73276;SDS011;61501;43.316;5.372;2023-04-21T07:18:54;3.78;;;3.17;;
73276;SDS011;61501;43.316;5.372;2023-04-21T07:21:20;6.28;;;2.88;;
73276;SDS011;61501;43.316;5.372;2023-04-21T07:23:45;4.10;;;2.50;;
73276;SDS011;61501;43.316;5.372;2023-04-21T07:26:11;5.65;;;2.85;;
73276;SDS011;61501;43.316;5.372;2023-04-21T07:28:37;4.97;;;3.15;;
73276;SDS011;61501;43.316;5.372;2023-04-21T07:31:04;5.65;;;3.20;;
73276;SDS011;61501;43.316;5.372;2023-04-21T07:33:30;5.28;;;3.03;;
73276;SDS011;61501;43.316;5.372;2023-04-21T07:35:56;4.43;;;2.80;;
73276;SDS011;61501;43.316;5.372;2023-04-21T07:38:22;3.88;;;2.70;;
73276;SDS011;61501;43.316;5.372;2023-04-21T07:40:47;3.63;;;2.90;;
73276;SDS011;61501;43.316;5.372;2023-04-21T07:43:13;5.30;;;2.88;;
73276;SDS011;61501;43.316;5.372;2023-04-21T07:45:38;5.10;;;3.20;;
73276;SDS011;61501;43.316;5.372;2023-04-21T07:48:04;5.82;;;2.70;;
73276;SDS011;61501;43.316;5.372;2023-04-21T07:50:30;8.15;;;2.70;;
73276;SDS011;61501;43.316;5.372;2023-04-21T07:52:56;6.85;;;2.60;;
73276;SDS011;61501;43.316;5.372;2023-04-21T07:55:21;3.00;;;2.70;;
73276;SDS011;61501;43.316;5.372;2023-04-21T07:57:47;3.50;;;2.90;;
73276;SDS011;61501;43.316;5.372;2023-04-21T08:00:13;4.15;;;2.70;;
73276;SDS011;61501;43.316;5.372;2023-04-21T08:02:39;4.03;;;2.72;;
73276;SDS011;61501;43.316;5.372;2023-04-21T08:05:05;3.22;;;2.53;;
73276;SDS011;61501;43.316;5.372;2023-04-21T08:07:31;8.45;;;2.78;;
73276;SDS011;61501;43.316;5.372;2023-04-21T08:09:57;3.97;;;2.67;;
73276;SDS011;61501;43.316;5.372;2023-04-21T08:12:24;2.63;;;2.40;;
73276;SDS011;61501;43.316;5.372;2023-04-21T08:14:50;8.00;;;2.80;;
73276;SDS011;61501;43.316;5.372;2023-04-21T08:17:15;4.85;;;2.47;;
73276;SDS011;61501;43.316;5.372;2023-04-21T08:19:41;2.28;;;2.00;;
73276;SDS011;61501;43.316;5.372;2023-04-21T08:22:07;3.30;;;2.17;;
73276;SDS011;61501;43.316;5.372;2023-04-21T08:24:33;6.10;;;2.20;;
73276;SDS011;61501;43.316;5.372;2023-04-21T08:26:59;2.97;;;2.67;;
73276;SDS011;61501;43.316;5.372;2023-04-21T08:29:26;3.83;;;2.75;;
73276;SDS011;61501;43.316;5.372;2023-04-21T08:31:52;4.95;;;2.60;;
73276;SDS011;61501;43.316;5.372;2023-04-21T08:34:17;3.05;;;2.20;;
73276;SDS011;61501;43.316;5.372;2023-04-21T08:36:43;3.47;;;2.40;;
73276;SDS011;61501;43.316;5.372;2023-04-21T08:39:11;2.90;;;2.20;;
73276;SDS011;61501;43.316;5.372;2023-04-21T08:41:38;3.15;;;2.28;;
73276;SDS011;61501;43.316;5.372;2023-04-21T08:44:09;5.53;;;2.10;;
73276;SDS011;61501;43.316;5.372;2023-04-21T08:46:39;2.83;;;2.53;;
73276;SDS011;61501;43.316;5.372;2023-04-21T08:49:04;2.97;;;2.00;;
73276;SDS011;61501;43.316;5.372;2023-04-21T08:51:33;3.28;;;2.40;;
73276;SDS011;61501;43.316;5.372;2023-04-21T08:53:59;5.60;;;2.47;;
73276;SDS011;61501;43.316;5.372;2023-04-21T08:56:25;3.85;;;2.28;;
73276;SDS011;61501;43.316;5.372;2023-04-21T08:58:51;4.00;;;2.08;;
73276;SDS011;61501;43.316;5.372;2023-04-21T09:01:17;2.92;;;2.28;;
73276;SDS011;61501;43.316;5.372;2023-04-21T09:03:43;3.33;;;2.30;;
73276;SDS011;61501;43.316;5.372;2023-04-21T09:06:09;2.47;;;2.28;;
73276;SDS011;61501;43.316;5.372;2023-04-21T09:08:37;2.40;;;2.20;;
73276;SDS011;61501;43.316;5.372;2023-04-21T09:11:06;3.10;;;2.30;;
73276;SDS011;61501;43.316;5.372;2023-04-21T09:13:34;2.53;;;2.05;;
73276;SDS011;61501;43.316;5.372;2023-04-21T09:16:02;2.35;;;1.80;;
73276;SDS011;61501;43.316;5.372;2023-04-21T09:18:29;3.17;;;2.15;;
73276;SDS011;61501;43.316;5.372;2023-04-21T09:21:07;3.83;;;1.95;;
73276;SDS011;61501;43.316;5.372;2023-04-21T09:23:47;3.67;;;1.92;;
73276;SDS011;61501;43.316;5.372;2023-04-21T09:26:15;5.18;;;2.05;;
73276;SDS011;61501;43.316;5.372;2023-04-21T09:28:45;3.50;;;2.20;;
73276;SDS011;61501;43.316;5.372;2023-04-21T09:31:15;3.83;;;2.00;;
73276;SDS011;61501;43.316;5.372;2023-04-21T09:33:46;6.93;;;2.13;;
73276;SDS011;61501;43.316;5.372;2023-04-21T09:36:17;3.20;;;2.00;;
73276;SDS011;61501;43.316;5.372;2023-04-21T09:38:54;4.43;;;1.95;;
73276;SDS011;61501;43.316;5.372;2023-04-21T09:41:21;5.93;;;2.33;;
73276;SDS011;61501;43.316;5.372;2023-04-21T09:43:47;3.58;;;2.13;;
73276;SDS011;61501;43.316;5.372;2023-04-21T09:46:16;2.60;;;2.15;;
73276;SDS011;61501;43.316;5.372;2023-04-21T09:48:44;5.32;;;2.25;;
73276;SDS011;61501;43.316;5.372;2023-04-21T09:51:10;3.50;;;2.15;;
73276;SDS011;61501;43.316;5.372;2023-04-21T09:53:38;4.07;;;2.40;;
73276;SDS011;61501;43.316;5.372;2023-04-21T09:56:04;4.40;;;2.58;;
73276;SDS011;61501;43.316;5.372;2023-04-21T09:58:45;2.65;;;1.90;;
73276;SDS011;61501;43.316;5.372;2023-04-21T10:01:12;3.17;;;2.40;;
73276;SDS011;61501;43.316;5.372;2023-04-21T10:03:40;5.90;;;2.83;;
73276;SDS011;61501;43.316;5.372;2023-04-21T10:06:07;4.38;;;2.33;;
73276;SDS011;61501;43.316;5.372;2023-04-21T10:08:33;3.22;;;2.20;;
73276;SDS011;61501;43.316;5.372;2023-04-21T10:11:00;2.97;;;1.95;;
73276;SDS011;61501;43.316;5.372;2023-04-21T10:13:27;5.07;;;2.53;;
73276;SDS011;61501;43.316;5.372;2023-04-21T10:16:03;3.58;;;2.53;;
73276;SDS011;61501;43.316;5.372;2023-04-21T10:18:31;2.47;;;2.20;;
73276;SDS011;61501;43.316;5.372;2023-04-21T10:21:00;3.28;;;2.50;;
73276;SDS011;61501;43.316;5.372;2023-04-21T10:26:09;3.25;;;2.28;;
73276;SDS011;61501;43.316;5.372;2023-04-21T10:31:29;2.95;;;2.22;;
73276;SDS011;61501;43.316;5.372;2023-04-21T10:47:35;3.67;;;2.00;;
73276;SDS011;61501;43.316;5.372;2023-04-21T10:53:07;2.03;;;1.80;;
73276;SDS011;61501;43.316;5.372;2023-04-21T10:55:36;4.05;;;2.20;;
73276;SDS011;61501;43.316;5.372;2023-04-21T10:58:04;4.65;;;1.95;;
73276;SDS011;61501;43.316;5.372;2023-04-21T11:00:33;3.30;;;1.83;;
73276;SDS011;61501;43.316;5.372;2023-04-21T11:03:03;3.05;;;1.85;;
73276;SDS011;61501;43.316;5.372;2023-04-21T11:05:30;4.05;;;2.00;;
73276;SDS011;61501;43.316;5.372;2023-04-21T11:08:05;2.08;;;1.85;;
73276;SDS011;61501;43.316;5.372;2023-04-21T11:13:09;2.67;;;1.85;;
73276;SDS011;61501;43.316;5.372;2023-04-21T11:15:35;3.42;;;1.80;;
73276;SDS011;61501;43.316;5.372;2023-04-21T11:18:01;2.33;;;1.60;;
73276;SDS011;61501;43.316;5.372;2023-04-21T11:20:27;2.78;;;1.80;;
73276;SDS011;61501;43.316;5.372;2023-04-21T11:22:52;2.65;;;1.70;;
73276;SDS011;61501;43.316;5.372;2023-04-21T11:25:20;3.85;;;1.73;;
73276;SDS011;61501;43.316;5.372;2023-04-21T11:27:55;3.75;;;1.85;;
73276;SDS011;61501;43.316;5.372;2023-04-21T11:30:33;2.10;;;1.63;;
73276;SDS011;61501;43.316;5.372;2023-04-21T11:32:59;2.40;;;1.50;;
73276;SDS011;61501;43.316;5.372;2023-04-21T11:35:25;2.13;;;1.60;;
73276;SDS011;61501;43.316;5.372;2023-04-21T11:37:51;2.33;;;1.58;;
73276;SDS011;61501;43.316;5.372;2023-04-21T11:40:16;2.22;;;1.48;;
73276;SDS011;61501;43.316;5.372;2023-04-21T11:42:43;3.63;;;1.75;;
73276;SDS011;61501;43.316;5.372;2023-04-21T11:45:15;3.28;;;1.50;;
73276;SDS011;61501;43.316;5.372;2023-04-21T11:47:42;2.08;;;1.67;;
73276;SDS011;61501;43.316;5.372;2023-04-21T11:50:08;3.17;;;2.00;;
73276;SDS011;61501;43.316;5.372;2023-04-21T11:52:34;2.35;;;1.73;;
73276;SDS011;61501;43.316;5.372;2023-04-21T11:55:09;1.80;;;1.40;;
73276;SDS011;61501;43.316;5.372;2023-04-21T11:57:38;1.88;;;1.30;;
73276;SDS011;61501;43.316;5.372;2023-04-21T12:00:04;2.15;;;1.30;;
73276;SDS011;61501;43.316;5.372;2023-04-21T12:02:32;1.42;;;1.23;;
73276;SDS011;61501;43.316;5.372;2023-04-21T12:05:20;1.52;;;1.10;;
73276;SDS011;61501;43.316;5.372;2023-04-21T12:07:45;1.15;;;1.05;;
73276;SDS011;61501;43.316;5.372;2023-04-21T12:10:16;3.00;;;1.30;;
73276;SDS011;61501;43.316;5.372;2023-04-21T12:12:43;3.78;;;1.60;;
73276;SDS011;61501;43.316;5.372;2023-04-21T12:15:10;2.03;;;1.30;;
73276;SDS011;61501;43.316;5.372;2023-04-21T12:17:48;1.92;;;1.48;;
73276;SDS011;61501;43.316;5.372;2023-04-21T12:20:18;1.50;;;1.40;;
73276;SDS011;61501;43.316;5.372;2023-04-21T12:22:48;1.95;;;1.50;;
73276;SDS011;61501;43.316;5.372;2023-04-21T12:25:14;1.95;;;1.30;;
73276;SDS011;61501;43.316;5.372;2023-04-21T12:27:49;3.22;;;1.55;;
73276;SDS011;61501;43.316;5.372;2023-04-21T12:30:16;2.42;;;1.52;;
73276;SDS011;61501;43.316;5.372;2023-04-21T12:32:42;2.47;;;1.40;;
73276;SDS011;61501;43.316;5.372;2023-04-21T12:35:07;3.95;;;1.48;;
73276;SDS011;61501;43.316;5.372;2023-04-21T12:37:33;1.90;;;1.40;;
73276;SDS011;61501;43.316;5.372;2023-04-21T12:39:59;2.38;;;1.70;;
73276;SDS011;61501;43.316;5.372;2023-04-21T12:42:28;3.08;;;1.52;;
73276;SDS011;61501;43.316;5.372;2023-04-21T12:44:54;2.47;;;1.60;;
73276;SDS011;61501;43.316;5.372;2023-04-21T12:47:20;3.55;;;1.90;;
73276;SDS011;61501;43.316;5.372;2023-04-21T12:49:46;3.13;;;1.70;;
73276;SDS011;61501;43.316;5.372;2023-04-21T12:52:12;2.53;;;2.00;;
73276;SDS011;61501;43.316;5.372;2023-04-21T12:54:37;2.47;;;1.50;;
73276;SDS011;61501;43.316;5.372;2023-04-21T12:57:03;3.38;;;1.67;;
73276;SDS011;61501;43.316;5.372;2023-04-21T12:59:30;4.53;;;1.63;;
73276;SDS011;61501;43.316;5.372;2023-04-21T13:01:56;1.95;;;1.50;;
73276;SDS011;61501;43.316;5.372;2023-04-21T13:04:21;3.58;;;1.65;;
73276;SDS011;61501;43.316;5.372;2023-04-21T13:06:47;3.78;;;1.77;;
73276;SDS011;61501;43.316;5.372;2023-04-21T13:09:14;3.92;;;1.77;;
73276;SDS011;61501;43.316;5.372;2023-04-21T13:11:45;4.78;;;1.80;;
73276;SDS011;61501;43.316;5.372;2023-04-21T13:14:11;2.60;;;1.90;;
73276;SDS011;61501;43.316;5.372;2023-04-21T13:16:37;4.00;;;1.88;;
73276;SDS011;61501;43.316;5.372;2023-04-21T13:19:03;2.42;;;1.90;;
73276;SDS011;61501;43.316;5.372;2023-04-21T13:21:29;2.00;;;1.80;;
73276;SDS011;61501;43.316;5.372;2023-04-21T13:23:56;3.00;;;2.00;;
73276;SDS011;61501;43.316;5.372;2023-04-21T13:26:22;5.82;;;2.00;;
73276;SDS011;61501;43.316;5.372;2023-04-21T13:28:48;2.95;;;2.17;;
73276;SDS011;61501;43.316;5.372;2023-04-21T13:31:14;4.65;;;1.70;;
73276;SDS011;61501;43.316;5.372;2023-04-21T13:33:40;3.70;;;2.00;;
73276;SDS011;61501;43.316;5.372;2023-04-21T13:36:06;2.97;;;1.95;;
73276;SDS011;61501;43.316;5.372;2023-04-21T13:38:33;2.28;;;1.60;;
73276;SDS011;61501;43.316;5.372;2023-04-21T13:40:58;2.83;;;1.90;;
73276;SDS011;61501;43.316;5.372;2023-04-21T13:43:24;2.30;;;1.58;;
73276;SDS011;61501;43.316;5.372;2023-04-21T13:45:50;3.53;;;2.05;;
73276;SDS011;61501;43.316;5.372;2023-04-21T13:48:17;3.08;;;1.80;;
73276;SDS011;61501;43.316;5.372;2023-04-21T13:50:48;2.47;;;1.60;;
73276;SDS011;61501;43.316;5.372;2023-04-21T13:53:16;2.40;;;1.67;;
73276;SDS011;61501;43.316;5.372;2023-04-21T13:55:42;2.22;;;1.88;;
73276;SDS011;61501;43.316;5.372;2023-04-21T13:58:08;3.28;;;2.10;;
73276;SDS011;61501;43.316;5.372;2023-04-21T14:00:35;3.33;;;2.17;;
73276;SDS011;61501;43.316;5.372;2023-04-21T14:03:01;2.28;;;2.00;;
73276;SDS011;61501;43.316;5.372;2023-04-21T14:05:27;2.38;;;2.08;;
73276;SDS011;61501;43.316;5.372;2023-04-21T14:07:52;2.05;;;1.63;;
73276;SDS011;61501;43.316;5.372;2023-04-21T14:10:18;5.18;;;1.80;;
73276;SDS011;61501;43.316;5.372;2023-04-21T14:12:44;1.60;;;1.50;;
73276;SDS011;61501;43.316;5.372;2023-04-21T14:15:10;1.88;;;1.50;;
73276;SDS011;61501;43.316;5.372;2023-04-21T14:17:36;2.35;;;1.33;;
73276;SDS011;61501;43.316;5.372;2023-04-21T14:20:02;2.72;;;1.48;;
73276;SDS011;61501;43.316;5.372;2023-04-21T14:22:28;2.40;;;1.60;;
73276;SDS011;61501;43.316;5.372;2023-04-21T14:24:53;3.42;;;1.30;;
73276;SDS011;61501;43.316;5.372;2023-04-21T14:27:19;2.83;;;1.83;;
73276;SDS011;61501;43.316;5.372;2023-04-21T14:29:45;2.20;;;1.45;;
73276;SDS011;61501;43.316;5.372;2023-04-21T14:32:11;1.30;;;1.20;;
73276;SDS011;61501;43.316;5.372;2023-04-21T14:34:36;1.95;;;1.25;;
73276;SDS011;61501;43.316;5.372;2023-04-21T14:37:02;2.25;;;1.40;;
73276;SDS011;61501;43.316;5.372;2023-04-21T14:39:27;3.00;;;1.75;;
73276;SDS011;61501;43.316;5.372;2023-04-21T14:41:53;3.10;;;1.33;;
73276;SDS011;61501;43.316;5.372;2023-04-21T14:44:19;2.55;;;1.45;;
73276;SDS011;61501;43.316;5.372;2023-04-21T14:46:44;1.67;;;0.80;;
73276;SDS011;61501;43.316;5.372;2023-04-21T14:49:10;1.23;;;1.10;;
73276;SDS011;61501;43.316;5.372;2023-04-21T14:51:36;2.83;;;1.23;;
73276;SDS011;61501;43.316;5.372;2023-04-21T14:54:04;1.13;;;1.02;;
73276;SDS011;61501;43.316;5.372;2023-04-21T14:56:30;1.15;;;1.05;;
73276;SDS011;61501;43.316;5.372;2023-04-21T14:58:55;1.88;;;1.50;;
73276;SDS011;61501;43.316;5.372;2023-04-21T15:01:21;1.42;;;1.25;;
73276;SDS011;61501;43.316;5.372;2023-04-21T15:03:47;1.52;;;1.15;;
73276;SDS011;61501;43.316;5.372;2023-04-21T15:06:12;4.38;;;1.40;;
73276;SDS011;61501;43.316;5.372;2023-04-21T15:08:40;1.23;;;1.02;;
73276;SDS011;61501;43.316;5.372;2023-04-21T15:11:05;1.40;;;1.17;;
73276;SDS011;61501;43.316;5.372;2023-04-21T15:13:31;3.33;;;1.20;;